INFORMACIÓN METAR y TAF
METAR FOR LEDA
ADDS - METARS form results

(1008 UTC 25 August 2019)
Data provider http://aviationweather.gov/metar/data/
 
METAR text: LEDA 251000Z VRB02KT CAVOK 29/14 Q1019
Conditions at: LEDA (LLEIDA-ALGUAIRE , ES) observed 1000 UTC 25 August 2019
Temperature: 29.0°C (84°F)
Dewpoint: 14.0°C (57°F) [RH = 40%]
Pressure (altimeter): 30.09 inches Hg (1019.0 mb)
Winds: variable direction winds at 2 MPH (2 knots; 1.0 m/s)
Visibility: 6 or more miles (10+ km)
Ceiling: ceiling and visibility are OK
Clouds: unknown
Weather: no significant weather observed at this time

METAR text: LEDA 250930Z 13004KT 030V190 CAVOK 28/14 Q1019
Conditions at: LEDA (LLEIDA-ALGUAIRE , ES) observed 0930 UTC 25 August 2019
Temperature: 28.0°C (82°F)
Dewpoint: 14.0°C (57°F) [RH = 42%]
Pressure (altimeter): 30.09 inches Hg (1019.0 mb)
Winds: from the SE (130 degrees) at 5 MPH (4 knots; 2.1 m/s)
Visibility: 6 or more miles (10+ km)
Ceiling: ceiling and visibility are OK
Clouds: unknown
Weather: no significant weather observed at this time

 MAPA DE AEROPUERTO

 INFORMACIÓN DE PISTA

 FRECUANCIAS DEL AEROPUERTO

 RADIO AYUDAS DEL AEROPUERTO



Powered by Virtual Airlines Manager [v2.6.2]